1863 NOT_NAMED (1863141S07089)


IBTrACS version v04r00. Visit IBTrACS website for data access.
Please direct all questions to the IBTrACS Q and A forum

Storm track - Intensity - Wind Radii - Intensity Data - Source Data - All data

Summary Information

Storm ID 1863141S07089
Start May 21 06Z
End May 30 06Z
ATCF IDs
Track status Best track data.

Storm track plot

Map of storm track

Intensity plots

No Intensity information for this storm


Radial wind information

No radial wind information for this storm


Position and Intensity Table

BASIN ISO_TIME_________ NATURE LAT LON
degrees north degrees east
SI 1863-05-21 06:00:00 NR -7.00 89.10
SI 09:00:00 NR -7.03 88.93
SI 12:00:00 NR -7.06 88.76
SI 15:00:00 NR -7.09 88.58
SI 18:00:00 NR -7.13 88.41
SI 21:00:00 NR -7.16 88.24
SI 1863-05-22 00:00:00 NR -7.21 88.06
SI 03:00:00 NR -7.25 87.88
SI 06:00:00 NR -7.30 87.70
SI 09:00:00 NR -7.36 87.52
SI 12:00:00 NR -7.41 87.33
SI 15:00:00 NR -7.48 87.15
SI 18:00:00 NR -7.54 86.96
SI 21:00:00 NR -7.61 86.77
SI 1863-05-23 00:00:00 NR -7.67 86.58
SI 03:00:00 NR -7.74 86.39
SI 06:00:00 NR -7.80 86.20
SI 09:00:00 NR -7.81 86.10
SI 12:00:00 NR -7.82 86.01
SI 15:00:00 NR -7.82 85.92
SI 18:00:00 NR -7.84 85.80
SI 21:00:00 NR -7.88 85.63
SI 1863-05-24 00:00:00 NR -7.94 85.41
SI 03:00:00 NR -8.05 85.10
SI 06:00:00 NR -8.20 84.70
SI 09:00:00 NR -8.46 84.04
SI 12:00:00 NR -8.77 83.28
SI 15:00:00 NR -9.11 82.43
SI 18:00:00 NR -9.47 81.56
SI 21:00:00 NR -9.84 80.69
SI 1863-05-25 00:00:00 NR -10.19 79.86
SI 03:00:00 NR -10.52 79.12
SI 06:00:00 NR -10.80 78.50
SI 09:00:00 NR -10.99 78.13
SI 12:00:00 NR -11.15 77.87
SI 15:00:00 NR -11.28 77.71
SI 18:00:00 NR -11.39 77.62
SI 21:00:00 NR -11.48 77.60
SI 1863-05-26 00:00:00 NR -11.56 77.61
SI 03:00:00 NR -11.63 77.65
SI 06:00:00 NR -11.70 77.70
SI 09:00:00 NR -11.80 77.66
SI 12:00:00 NR -11.89 77.65
SI 15:00:00 NR -11.98 77.65
SI 18:00:00 NR -12.06 77.66
SI 21:00:00 NR -12.15 77.68
SI 1863-05-27 00:00:00 NR -12.23 77.72
SI 03:00:00 NR -12.32 77.76
SI 06:00:00 NR -12.40 77.80
SI 09:00:00 NR -12.47 77.80
SI 12:00:00 NR -12.53 77.81
SI 15:00:00 NR -12.60 77.82
SI 18:00:00 NR -12.67 77.84
SI 21:00:00 NR -12.75 77.89
SI 1863-05-28 00:00:00 NR -12.85 77.96
SI 03:00:00 NR -12.96 78.06
SI 06:00:00 NR -13.10 78.20
SI 09:00:00 NR -13.28 78.38
SI 12:00:00 NR -13.48 78.60
SI 15:00:00 NR -13.71 78.86
SI 18:00:00 NR -13.94 79.13
SI 21:00:00 NR -14.18 79.43
SI 1863-05-29 00:00:00 NR -14.43 79.75
SI 03:00:00 NR -14.67 80.07
SI 06:00:00 NR -14.90 80.40
SI 09:00:00 NR -15.12 80.73
SI 12:00:00 NR -15.33 81.05
SI 15:00:00 NR -15.52 81.38
SI 18:00:00 NR -15.71 81.70
SI 21:00:00 NR -15.89 82.03
SI 1863-05-30 00:00:00 NR -16.06 82.35
SI 03:00:00 NR -16.23 82.68
SI 06:00:00 NR -16.40 83.00

Source Information

Agency Information
USA
TOKYO
CMA
HKO
NEWDELHI
REUNION WMO-Best-Tracks.txt:Line=524:xxxx863076
BOM
NADI
WELLINGTON
DS824
TD9636
TD9635
NEUMANN
MLC

All available IBTrACS Data

SEASON BASIN SUBBASIN ISO_TIME_________ NATURE LAT LON WMO AGENCY DIST2LAND LANDFALL IFLAG USA SSHS REUNION LAT REUNION LON REUNION TYPE REUNION TNUM STORM SPEED STORM DIR
Year degrees north degrees east km km 1 degrees north degrees east 1 kts degrees
1863 SI MM 1863-05-21 06:00:00 NR -7.00 89.10 1238 1238 _____O________ -1 -7.00 89.10 99 9.90 3 260
1863 SI MM 09:00:00 NR -7.03 88.93 1257 1257 _____P________ -1 -7.03 88.93 99 3 260
1863 SI MM 12:00:00 NR -7.06 88.76 1272 1272 _____P________ -1 -7.06 88.76 99 3 260
1863 SI MM 15:00:00 NR -7.09 88.58 1291 1291 _____P________ -1 -7.09 88.58 99 4 259
1863 SI MM 18:00:00 NR -7.13 88.41 1310 1310 _____P________ -1 -7.13 88.41 99 4 258
1863 SI MM 21:00:00 NR -7.16 88.24 1335 1335 _____P________ -1 -7.16 88.24 99 4 257
1863 SI MM 1863-05-22 00:00:00 NR -7.21 88.06 1345 1345 _____P________ -1 -7.21 88.06 99 4 256
1863 SI MM 03:00:00 NR -7.25 87.88 1369 1369 _____P________ -1 -7.25 87.88 99 4 255
1863 SI MM 06:00:00 NR -7.30 87.70 1389 1389 _____O________ -1 -7.30 87.70 99 9.90 4 254
1863 SI MM 09:00:00 NR -7.36 87.52 1413 1413 _____P________ -1 -7.36 87.52 99 4 253
1863 SI MM 12:00:00 NR -7.41 87.33 1433 1433 _____P________ -1 -7.41 87.33 99 4 252
1863 SI MM 15:00:00 NR -7.48 87.15 1458 1458 _____P________ -1 -7.48 87.15 99 4 251
1863 SI MM 18:00:00 NR -7.54 86.96 1467 1467 _____P________ -1 -7.54 86.96 99 4 251
1863 SI MM 21:00:00 NR -7.61 86.77 1492 1492 _____P________ -1 -7.61 86.77 99 4 251
1863 SI MM 1863-05-23 00:00:00 NR -7.67 86.58 1517 1517 _____P________ -1 -7.67 86.58 99 4 251
1863 SI MM 03:00:00 NR -7.74 86.39 1536 1536 _____P________ -1 -7.74 86.39 99 4 251
1863 SI MM 06:00:00 NR -7.80 86.20 1561 1561 _____O________ -1 -7.80 86.20 99 9.90 3 256
1863 SI MM 09:00:00 NR -7.81 86.10 1571 1571 _____P________ -1 -7.81 86.10 99 2 265
1863 SI MM 12:00:00 NR -7.82 86.01 1581 1581 _____P________ -1 -7.82 86.01 99 2 267
1863 SI MM 15:00:00 NR -7.82 85.92 1590 1590 _____P________ -1 -7.82 85.92 99 2 264
1863 SI MM 18:00:00 NR -7.84 85.80 1600 1600 _____P________ -1 -7.84 85.80 99 3 259
1863 SI MM 21:00:00 NR -7.88 85.63 1625 1625 _____P________ -1 -7.88 85.63 99 4 255
1863 SI MM 1863-05-24 00:00:00 NR -7.94 85.41 1635 1635 _____P________ -1 -7.94 85.41 99 6 252
1863 SI MM 03:00:00 NR -8.05 85.10 1635 1635 _____P________ -1 -8.05 85.10 99 7 250
1863 SI MM 06:00:00 NR -8.20 84.70 1644 1641 _____O________ -1 -8.20 84.70 99 9.90 11 249
1863 SI MM 09:00:00 NR -8.46 84.04 1657 1652 _____P________ -1 -8.46 84.04 99 15 248
1863 SI MM 12:00:00 NR -8.77 83.28 1674 1670 _____P________ -1 -8.77 83.28 99 17 248
1863 SI MM 15:00:00 NR -9.11 82.43 1692 1692 _____P________ -1 -9.11 82.43 99 18 247
1863 SI MM 18:00:00 NR -9.47 81.56 1729 1727 _____P________ -1 -9.47 81.56 99 19 247
1863 SI MM 21:00:00 NR -9.84 80.69 1759 1759 _____P________ -1 -9.84 80.69 99 18 247
1863 SI MM 1863-05-25 00:00:00 NR -10.19 79.86 1805 1805 _____P________ -1 -10.19 79.86 99 17 246
1863 SI MM 03:00:00 NR -10.52 79.12 1845 1845 _____P________ -1 -10.52 79.12 99 15 246
1863 SI MM 06:00:00 NR -10.80 78.50 reunion 1885 1885 _____O________ -1 -10.80 78.50 99 9.90 11 244
1863 SI MM 09:00:00 NR -10.99 78.13 1913 1913 _____P________ -1 -10.99 78.13 99 7 240
1863 SI MM 12:00:00 NR -11.15 77.87 1939 1939 _____P________ -1 -11.15 77.87 99 5 235
1863 SI MM 15:00:00 NR -11.28 77.71 1953 1953 _____P________ -1 -11.28 77.71 99 3 226
1863 SI MM 18:00:00 NR -11.39 77.62 1966 1966 _____P________ -1 -11.39 77.62 99 2 210
1863 SI MM 21:00:00 NR -11.48 77.60 1977 1977 _____P________ -1 -11.48 77.60 99 2 0
1863 SI MM 1863-05-26 00:00:00 NR -11.56 77.61 1988 1986 _____P________ -1 -11.56 77.61 99 2 158
1863 SI MM 03:00:00 NR -11.63 77.65 1986 1986 _____P________ -1 -11.63 77.65 99 2 153
1863 SI MM 06:00:00 NR -11.70 77.70 reunion 1997 1997 _____O________ -1 -11.70 77.70 99 9.90 2 0
1863 SI MM 09:00:00 NR -11.80 77.66 2009 2009 _____P________ -1 -11.80 77.66 99 2 197
1863 SI MM 12:00:00 NR -11.89 77.65 2021 2021 _____P________ -1 -11.89 77.65 99 2 0
1863 SI MM 15:00:00 NR -11.98 77.65 2032 2031 _____P________ -1 -11.98 77.65 99 2 173
1863 SI MM 18:00:00 NR -12.06 77.66 2042 2042 _____P________ -1 -12.06 77.66 99 2 165
1863 SI MM 21:00:00 NR -12.15 77.68 2042 2042 _____P________ -1 -12.15 77.68 99 2 162
1863 SI MM 1863-05-27 00:00:00 NR -12.23 77.72 2053 2053 _____P________ -1 -12.23 77.72 99 2 157
1863 SI MM 03:00:00 NR -12.32 77.76 2062 2062 _____P________ -1 -12.32 77.76 99 2 154
1863 SI MM 06:00:00 NR -12.40 77.80 reunion 2073 2073 _____O________ -1 -12.40 77.80 99 9.90 2 168
1863 SI MM 09:00:00 NR -12.47 77.80 2084 2084 _____P________ -1 -12.47 77.80 99 1 172
1863 SI MM 12:00:00 NR -12.53 77.81 2084 2084 _____P________ -1 -12.53 77.81 99 1 170
1863 SI MM 15:00:00 NR -12.60 77.82 2095 2095 _____P________ -1 -12.60 77.82 99 1 164
1863 SI MM 18:00:00 NR -12.67 77.84 2106 2105 _____P________ -1 -12.67 77.84 99 2 156
1863 SI MM 21:00:00 NR -12.75 77.89 2105 2105 _____P________ -1 -12.75 77.89 99 2 148
1863 SI MM 1863-05-28 00:00:00 NR -12.85 77.96 2114 2114 _____P________ -1 -12.85 77.96 99 3 142
1863 SI MM 03:00:00 NR -12.96 78.06 2135 2135 _____P________ -1 -12.96 78.06 99 3 138
1863 SI MM 06:00:00 NR -13.10 78.20 reunion 2145 2145 _____O________ -1 -13.10 78.20 99 9.90 4 135
1863 SI MM 09:00:00 NR -13.28 78.38 2164 2163 _____P________ -1 -13.28 78.38 99 6 134
1863 SI MM 12:00:00 NR -13.48 78.60 2184 2183 _____P________ -1 -13.48 78.60 99 6 133
1863 SI MM 15:00:00 NR -13.71 78.86 2203 2203 _____P________ -1 -13.71 78.86 99 7 132
1863 SI MM 18:00:00 NR -13.94 79.13 2224 2224 _____P________ -1 -13.94 79.13 99 7 130
1863 SI MM 21:00:00 NR -14.18 79.43 2255 2255 _____P________ -1 -14.18 79.43 99 8 129
1863 SI MM 1863-05-29 00:00:00 NR -14.43 79.75 2276 2275 _____P________ -1 -14.43 79.75 99 8 128
1863 SI MM 03:00:00 NR -14.67 80.07 2308 2308 _____P________ -1 -14.67 80.07 99 8 127
1863 SI MM 06:00:00 NR -14.90 80.40 2330 2330 _____O________ -1 -14.90 80.40 99 9.90 8 125
1863 SI MM 09:00:00 NR -15.12 80.73 2352 2352 _____P________ -1 -15.12 80.73 99 8 124
1863 SI MM 12:00:00 NR -15.33 81.05 2375 2375 _____P________ -1 -15.33 81.05 99 7 123
1863 SI MM 15:00:00 NR -15.52 81.38 2398 2398 _____P________ -1 -15.52 81.38 99 7 121
1863 SI MM 18:00:00 NR -15.71 81.70 2422 2422 _____P________ -1 -15.71 81.70 99 7 120
1863 SI MM 21:00:00 NR -15.89 82.03 2442 2424 _____P________ -1 -15.89 82.03 99 7 120
1863 SI MM 1863-05-30 00:00:00 NR -16.06 82.35 2423 2406 _____P________ -1 -16.06 82.35 99 7 119
1863 SI MM 03:00:00 NR -16.23 82.68 2406 2397 _____P________ -1 -16.23 82.68 99 7 119
1863 SI MM 06:00:00 NR -16.40 83.00 2397 _____O________ -1 -16.40 83.00 99 9.90 7 118